Time;durP1;ratioP1;P1;durP2;ratioP2;P2;SDS_P1;SDS_P2;PMS_P1;PMS_P2;Temp;Humidity;BMP_temperature;BMP_pressure;BME280_temperature;BME280_humidity;BME280_pressure;Samples;Min_cycle;Max_cycle;Signal;HPM_P1;HPM_P2
2022/11/04 00:01:30;;;;;;;1.00;0.90;;;11.30;99.90;;;;;;5081462;28;20641;-82
2022/11/04 00:03:56;;;;;;;1.93;0.90;;;11.20;99.90;;;;;;5081993;28;20240;-82
2022/11/04 00:06:21;;;;;;;1.60;1.07;;;11.10;99.90;;;;;;5083080;28;20183;-83
2022/11/04 00:08:55;;;;;;;2.90;0.70;;;11.10;99.90;;;;;;5083213;28;20206;-81
2022/11/04 00:14:16;;;;;;;0.70;0.70;;;11.10;99.90;;;;;;5065488;28;20186;-82
2022/11/04 00:19:26;;;;;;;1.00;0.70;;;11.00;99.90;;;;;;5083695;28;20194;-83
2022/11/04 00:30:08;;;;;;;2.30;1.10;;;11.00;99.90;;;;;;5099006;28;20192;-81
2022/11/04 00:35:19;;;;;;;1.27;0.87;;;11.00;99.90;;;;;;5082586;28;20589;-81
2022/11/04 00:37:45;;;;;;;1.30;0.73;;;11.00;99.90;;;;;;5081547;28;20199;-81
2022/11/04 00:40:14;;;;;;;3.63;1.10;;;10.90;99.90;;;;;;5079749;28;20187;-82
2022/11/04 00:42:42;;;;;;;1.50;0.83;;;10.90;99.90;;;;;;5082493;28;20182;-80
2022/11/04 00:45:08;;;;;;;1.83;1.13;;;10.90;99.90;;;;;;5086774;28;20224;-81
2022/11/04 00:47:33;;;;;;;1.77;1.10;;;10.90;99.90;;;;;;5084485;28;20218;-82
2022/11/04 00:49:58;;;;;;;1.73;1.20;;;10.90;99.90;;;;;;5083397;28;20224;-82
2022/11/04 00:52:24;;;;;;;3.60;1.00;;;10.90;99.90;;;;;;5085389;28;20175;-82
2022/11/04 00:54:50;;;;;;;1.43;1.10;;;10.90;99.90;;;;;;5074597;28;20187;-81
2022/11/04 00:57:15;;;;;;;2.50;1.30;;;10.90;99.90;;;;;;5066928;28;20552;-81
2022/11/04 00:59:41;;;;;;;1.37;1.27;;;10.90;99.90;;;;;;5065390;28;20179;-82
2022/11/04 01:02:08;;;;;;;1.73;1.30;;;10.90;99.90;;;;;;5063932;28;20197;-81
2022/11/04 01:04:34;;;;;;;2.17;1.60;;;10.90;99.90;;;;;;5063568;28;20550;-81
2022/11/04 01:07:00;;;;;;;3.07;1.60;;;10.90;99.90;;;;;;5063675;28;20205;-81
2022/11/04 01:09:26;;;;;;;2.47;1.50;;;10.90;99.90;;;;;;5064820;28;20192;-81
2022/11/04 01:11:51;;;;;;;1.40;1.30;;;10.90;99.90;;;;;;5065189;28;20703;-81
2022/11/04 01:14:17;;;;;;;5.47;1.53;;;10.90;99.90;;;;;;5065407;28;20168;-82
2022/11/04 01:16:43;;;;;;;1.83;1.33;;;10.90;99.90;;;;;;5062859;28;20186;-82
2022/11/04 01:19:09;;;;;;;5.63;1.73;;;10.90;99.90;;;;;;5065563;28;20665;-82
2022/11/04 01:21:35;;;;;;;1.90;1.27;;;10.90;99.90;;;;;;5062903;28;20172;-82
2022/11/04 01:24:01;;;;;;;1.83;1.33;;;10.90;99.90;;;;;;5065023;28;20206;-81
2022/11/04 01:26:28;;;;;;;1.57;1.23;;;10.90;99.90;;;;;;5063651;28;20172;-81
2022/11/04 01:28:54;;;;;;;4.07;1.80;;;10.90;99.90;;;;;;5075876;28;20607;-81
2022/11/04 01:31:23;;;;;;;3.50;1.70;;;10.90;99.90;;;;;;5085591;28;20175;-81
2022/11/04 01:33:51;;;;;;;3.07;1.87;;;10.90;99.90;;;;;;5086472;28;20225;-81
2022/11/04 01:36:17;;;;;;;4.80;2.17;;;10.90;99.90;;;;;;5083411;28;20187;-81
2022/11/04 01:38:43;;;;;;;1.73;1.60;;;10.90;99.90;;;;;;5083410;28;20216;-81
2022/11/04 01:41:16;;;;;;;3.23;1.70;;;10.90;99.90;;;;;;5082491;28;20214;-82
2022/11/04 01:43:59;;;;;;;3.00;1.70;;;10.70;99.90;;;;;;5083779;28;20290;-81
2022/11/04 01:46:37;;;;;;;3.00;1.97;;;10.80;99.90;;;;;;5084910;28;20170;-82
2022/11/04 01:49:22;;;;;;;2.67;1.63;;;10.90;99.90;;;;;;5081584;28;20211;-81
2022/11/04 01:51:51;;;;;;;1.23;1.13;;;10.90;99.90;;;;;;5081926;28;20220;-81
2022/11/04 01:54:17;;;;;;;3.83;1.80;;;10.90;99.90;;;;;;5081552;28;20199;-82
2022/11/04 01:56:45;;;;;;;3.70;1.83;;;10.80;99.90;;;;;;5082353;28;20179;-81
2022/11/04 01:59:17;;;;;;;3.90;1.80;;;10.90;99.90;;;;;;5083095;28;20198;-82
2022/11/04 02:01:43;;;;;;;2.80;1.40;;;10.80;99.90;;;;;;5082286;28;20171;-81
2022/11/04 02:04:25;;;;;;;2.97;1.90;;;10.80;99.90;;;;;;5084072;28;20593;-81
2022/11/04 02:06:59;;;;;;;2.80;1.80;;;10.80;99.90;;;;;;5089209;28;20277;-81
2022/11/04 02:09:27;;;;;;;4.10;2.03;;;10.70;99.90;;;;;;5088481;28;20213;-81
2022/11/04 02:14:39;;;;;;;4.33;1.63;;;10.70;99.90;;;;;;5085646;28;20177;-81
2022/11/04 02:17:28;;;;;;;2.83;2.00;;;10.70;99.90;;;;;;5087604;28;20221;-81
2022/11/04 02:20:28;;;;;;;2.73;1.70;;;10.60;99.90;;;;;;5084239;28;20182;-81
2022/11/04 02:23:12;;;;;;;2.00;1.80;;;10.60;99.90;;;;;;5082262;28;20224;-81
2022/11/04 02:26:06;;;;;;;3.17;1.67;;;10.50;99.90;;;;;;5083304;28;20204;-81
2022/11/04 02:29:09;;;;;;;5.73;1.60;;;10.50;99.90;;;;;;5084235;28;20206;-81
2022/11/04 02:31:52;;;;;;;2.43;1.60;;;10.50;99.90;;;;;;5083175;28;20232;-81
2022/11/04 02:34:39;;;;;;;2.93;1.63;;;10.50;99.90;;;;;;5083892;28;20163;-81
2022/11/04 02:37:22;;;;;;;2.60;1.40;;;10.40;99.90;;;;;;5083912;28;20258;-81
2022/11/04 02:40:01;;;;;;;5.03;1.40;;;10.40;99.90;;;;;;5083492;28;20281;-81
2022/11/04 02:42:50;;;;;;;3.53;1.60;;;10.40;99.90;;;;;;5084006;28;20174;-81
2022/11/04 02:45:24;;;;;;;7.07;1.60;;;10.50;99.90;;;;;;5083582;28;20258;-81
2022/11/04 02:48:04;;;;;;;3.27;1.47;;;10.40;99.90;;;;;;5084581;28;20198;-81
2022/11/04 02:50:48;;;;;;;5.90;1.90;;;10.40;99.90;;;;;;5084726;28;20621;-81
2022/11/04 02:53:28;;;;;;;6.80;1.63;;;10.40;99.90;;;;;;5083238;28;20655;-82
2022/11/04 02:55:56;;;;;;;1.27;1.00;;;10.30;99.90;;;;;;5082162;28;20159;-81
2022/11/04 02:58:29;;;;;;;4.70;1.60;;;10.30;99.90;;;;;;5093798;28;20252;-81
2022/11/04 03:00:56;;;;;;;2.83;1.17;;;10.30;99.90;;;;;;5083278;28;20261;-81
2022/11/04 03:03:26;;;;;;;6.00;1.30;;;10.20;99.90;;;;;;5083613;28;20178;-82
2022/11/04 03:05:54;;;;;;;2.87;1.20;;;10.20;99.90;;;;;;5083157;28;20167;-81
2022/11/04 03:08:42;;;;;;;4.97;1.30;;;10.20;99.90;;;;;;5082626;28;20217;-81
2022/11/04 03:11:13;;;;;;;2.20;0.90;;;10.10;99.90;;;;;;5082700;28;20163;-82
2022/11/04 03:13:45;;;;;;;5.10;1.50;;;10.10;99.90;;;;;;5082496;28;20185;-81
2022/11/04 03:16:18;;;;;;;1.83;1.30;;;10.00;99.90;;;;;;5083418;28;20193;-82
2022/11/04 03:19:15;;;;;;;4.13;1.30;;;10.00;99.90;;;;;;5083838;28;20201;-81
2022/11/04 03:21:56;;;;;;;1.27;0.93;;;9.90;99.90;;;;;;5084075;28;20257;-81
2022/11/04 03:24:21;;;;;;;2.83;1.13;;;9.90;99.90;;;;;;5085317;28;20159;-81
2022/11/04 03:27:02;;;;;;;2.40;1.20;;;9.90;99.90;;;;;;5083808;28;20549;-81
2022/11/04 03:29:47;;;;;;;2.47;1.20;;;10.00;99.90;;;;;;5081921;28;20191;-81
2022/11/04 03:32:27;;;;;;;7.63;1.40;;;9.90;99.90;;;;;;5082711;28;20186;-81
2022/11/04 03:34:53;;;;;;;7.47;1.10;;;9.90;99.90;;;;;;5084608;28;20175;-81
2022/11/04 03:37:18;;;;;;;4.63;1.10;;;9.80;99.90;;;;;;5083837;28;20695;-81
2022/11/04 03:39:44;;;;;;;3.70;1.33;;;9.80;99.90;;;;;;5086007;28;20539;-82
2022/11/04 03:42:20;;;;;;;8.57;1.43;;;9.70;99.90;;;;;;5095097;28;20184;-80
2022/11/04 03:44:55;;;;;;;3.57;1.23;;;9.70;99.90;;;;;;5099111;28;20182;-79
2022/11/04 03:47:23;;;;;;;5.27;1.10;;;9.70;99.90;;;;;;5091403;28;20199;-81
2022/11/04 03:49:51;;;;;;;6.13;1.63;;;9.70;99.90;;;;;;5082773;28;20183;-81
2022/11/04 03:52:17;;;;;;;3.93;1.00;;;9.60;99.90;;;;;;5084455;28;20170;-81
2022/11/04 03:54:44;;;;;;;4.83;1.30;;;9.60;99.90;;;;;;5081666;28;20179;-81
2022/11/04 03:57:19;;;;;;;7.63;1.10;;;9.60;99.90;;;;;;5083529;28;20177;-81
2022/11/04 03:59:56;;;;;;;7.00;1.30;;;9.60;99.90;;;;;;5082700;28;20159;-81
2022/11/04 04:02:47;;;;;;;4.47;1.03;;;9.50;99.90;;;;;;5081370;28;20174;-81
2022/11/04 04:05:18;;;;;;;2.27;0.90;;;9.60;99.90;;;;;;5081212;28;20181;-82
2022/11/04 04:08:13;;;;;;;2.90;1.07;;;9.60;99.90;;;;;;5061315;28;20211;-81
2022/11/04 04:10:51;;;;;;;5.87;1.17;;;9.50;99.90;;;;;;5079188;28;20187;-81
2022/11/04 04:13:23;;;;;;;7.20;1.57;;;9.50;99.90;;;;;;5062122;28;20164;-80
2022/11/04 04:16:01;;;;;;;7.40;1.40;;;9.50;99.90;;;;;;5062158;28;20174;-81
2022/11/04 04:18:46;;;;;;;4.80;1.23;;;9.50;99.90;;;;;;5060947;28;20191;-81
2022/11/04 04:21:17;;;;;;;2.97;1.10;;;9.50;99.90;;;;;;5060894;28;20179;-81
2022/11/04 04:29:17;;;;;;;4.80;1.03;;;9.50;99.90;;;;;;5082820;28;20208;-81
2022/11/04 04:31:48;;;;;;;4.13;1.00;;;9.40;99.90;;;;;;5082684;28;20195;-81
2022/11/04 04:34:16;;;;;;;2.67;1.00;;;9.40;99.90;;;;;;5080818;28;20182;-81
2022/11/04 04:36:52;;;;;;;3.80;1.23;;;9.30;99.90;;;;;;5081214;28;20167;-81
2022/11/04 04:45:27;;;;;;;5.97;1.37;;;9.20;99.90;;;;;;5059540;28;20295;-81
2022/11/04 04:47:53;;;;;;;3.33;1.23;;;9.10;99.90;;;;;;5068701;28;20224;-81
2022/11/04 04:50:20;;;;;;;3.57;1.40;;;9.10;99.90;;;;;;5083288;28;20230;-81
2022/11/04 04:52:52;;;;;;;4.57;1.20;;;9.10;99.90;;;;;;5080103;28;20194;-81
2022/11/04 04:55:17;;;;;;;3.77;1.03;;;9.00;99.90;;;;;;5080076;28;20159;-81
2022/11/04 04:57:44;;;;;;;4.40;1.07;;;9.00;99.90;;;;;;5062609;28;20248;-81
2022/11/04 05:00:14;;;;;;;6.53;1.27;;;9.00;99.90;;;;;;5061206;28;20270;-80
2022/11/04 05:02:39;;;;;;;4.10;1.37;;;9.00;99.90;;;;;;5062254;28;20160;-81
2022/11/04 05:05:05;;;;;;;3.43;1.43;;;8.90;99.90;;;;;;5060618;28;20225;-81
2022/11/04 05:07:31;;;;;;;5.00;1.20;;;9.00;99.90;;;;;;5062526;28;20255;-81
2022/11/04 05:09:56;;;;;;;6.83;1.20;;;8.90;99.90;;;;;;5070554;28;20210;-81
2022/11/04 05:12:22;;;;;;;5.00;1.40;;;8.90;99.90;;;;;;5080716;28;20163;-81
2022/11/04 05:14:48;;;;;;;4.33;1.67;;;8.90;99.90;;;;;;5080368;28;20182;-80
2022/11/04 05:17:14;;;;;;;7.70;1.80;;;8.80;99.90;;;;;;5081442;28;20645;-81
2022/11/04 05:19:39;;;;;;;5.97;1.57;;;8.80;99.90;;;;;;5081176;28;20198;-80
2022/11/04 05:22:05;;;;;;;3.17;1.20;;;8.80;99.90;;;;;;5082661;28;20233;-81
2022/11/04 05:24:30;;;;;;;5.10;1.63;;;8.80;99.90;;;;;;5083245;28;20179;-81
2022/11/04 05:26:56;;;;;;;6.87;1.20;;;8.80;99.90;;;;;;5080929;28;20217;-81
2022/11/04 05:29:21;;;;;;;3.40;1.37;;;8.80;99.90;;;;;;5085309;28;20285;-80
2022/11/04 05:31:47;;;;;;;5.00;1.57;;;8.80;99.90;;;;;;5090252;28;20186;-79
2022/11/04 05:34:13;;;;;;;7.30;1.57;;;8.80;99.90;;;;;;5082476;28;20688;-79
2022/11/04 05:36:38;;;;;;;5.60;1.77;;;8.80;99.90;;;;;;5075566;28;20179;-80
2022/11/04 05:39:05;;;;;;;4.47;1.60;;;8.80;99.90;;;;;;5066372;28;20701;-80
2022/11/04 05:41:32;;;;;;;4.27;1.20;;;8.80;99.90;;;;;;5061530;28;20175;-80
2022/11/04 05:43:59;;;;;;;5.60;1.10;;;8.70;99.90;;;;;;5058275;28;20286;-79
2022/11/04 05:46:26;;;;;;;3.40;1.30;;;8.60;99.90;;;;;;5060700;28;20187;-80
2022/11/04 05:48:52;;;;;;;3.30;1.10;;;8.60;99.90;;;;;;5056331;28;20234;-78
2022/11/04 05:51:23;;;;;;;2.57;1.40;;;8.60;99.90;;;;;;5056362;28;20202;-77
2022/11/04 05:53:49;;;;;;;4.20;1.10;;;8.60;99.90;;;;;;5056644;28;20243;-77
2022/11/04 05:56:15;;;;;;;1.70;0.90;;;8.50;99.90;;;;;;5056144;28;20682;-76
2022/11/04 05:58:40;;;;;;;3.57;1.30;;;8.50;99.90;;;;;;5054691;28;21044;-78
2022/11/04 06:01:26;;;;;;;5.43;1.30;;;8.50;99.90;;;;;;5055950;28;20993;-77
2022/11/04 06:03:53;;;;;;;8.93;1.40;;;8.50;99.90;;;;;;5056343;28;20592;-79
2022/11/04 06:06:20;;;;;;;5.67;1.30;;;8.40;99.90;;;;;;5057938;28;20262;-80
2022/11/04 06:08:46;;;;;;;6.17;1.63;;;8.40;99.90;;;;;;5056561;28;20250;-80
2022/11/04 06:11:12;;;;;;;6.10;1.43;;;8.40;99.90;;;;;;5057977;28;20183;-79
2022/11/04 06:13:37;;;;;;;8.37;1.33;;;8.40;99.90;;;;;;5057330;28;20175;-79
2022/11/04 06:16:03;;;;;;;2.60;1.17;;;8.40;99.90;;;;;;5056516;28;20217;-79
2022/11/04 06:18:29;;;;;;;3.97;1.20;;;8.40;99.90;;;;;;5056768;28;20199;-80
2022/11/04 06:21:06;;;;;;;3.30;1.27;;;8.30;99.90;;;;;;5058149;28;20220;-79
2022/11/04 06:23:32;;;;;;;3.17;1.40;;;8.30;99.90;;;;;;5056710;28;20180;-79
2022/11/04 06:25:57;;;;;;;4.80;1.50;;;8.30;99.90;;;;;;5057640;28;20254;-78
2022/11/04 06:28:23;;;;;;;3.10;1.27;;;8.30;99.90;;;;;;5055889;28;20588;-81
2022/11/04 06:30:48;;;;;;;5.93;1.43;;;8.20;99.90;;;;;;5056425;28;20190;-79
2022/11/04 06:33:14;;;;;;;4.67;1.57;;;8.20;99.90;;;;;;5058766;28;20172;-81
2022/11/04 06:35:39;;;;;;;5.37;1.63;;;8.30;99.90;;;;;;5058242;28;20247;-81
2022/11/04 06:38:05;;;;;;;3.83;1.30;;;8.30;99.90;;;;;;5059784;28;20306;-81
2022/11/04 06:40:30;;;;;;;5.90;1.57;;;8.20;99.90;;;;;;5057736;28;20532;-80
2022/11/04 06:42:56;;;;;;;6.17;1.40;;;8.20;99.90;;;;;;5058633;28;20711;-81
2022/11/04 06:45:21;;;;;;;3.60;1.67;;;8.30;99.90;;;;;;5057863;28;20609;-82
2022/11/04 06:47:47;;;;;;;7.70;1.80;;;8.20;99.90;;;;;;5059211;28;20211;-82
2022/11/04 06:50:13;;;;;;;2.33;1.10;;;8.20;99.90;;;;;;5060339;28;20183;-82
2022/11/04 06:52:39;;;;;;;2.30;1.30;;;8.30;99.90;;;;;;5059022;28;20172;-82
2022/11/04 06:55:05;;;;;;;3.10;1.40;;;8.30;99.90;;;;;;5066606;28;20160;-81
2022/11/04 06:57:30;;;;;;;4.37;1.23;;;8.30;99.90;;;;;;5079549;28;20214;-81
2022/11/04 06:59:56;;;;;;;5.50;1.63;;;8.30;99.90;;;;;;5077491;28;20160;-79
2022/11/04 07:02:21;;;;;;;3.63;1.30;;;8.40;99.90;;;;;;5056600;28;20657;-79
2022/11/04 07:04:47;;;;;;;5.07;1.60;;;8.40;99.90;;;;;;5056516;28;20176;-78
2022/11/04 07:07:13;;;;;;;5.47;1.30;;;8.40;99.90;;;;;;5055124;28;20218;-79
2022/11/04 07:09:38;;;;;;;3.83;1.20;;;8.40;99.90;;;;;;5056075;28;20724;-79
2022/11/04 07:12:04;;;;;;;3.90;1.10;;;8.50;99.90;;;;;;5056142;28;20167;-79
2022/11/04 07:14:30;;;;;;;2.80;1.20;;;8.50;99.90;;;;;;5056129;28;20535;-79
2022/11/04 07:16:55;;;;;;;5.30;1.17;;;8.50;99.90;;;;;;5056516;28;20540;-78
2022/11/04 07:19:21;;;;;;;2.33;1.27;;;8.60;99.90;;;;;;5054958;28;20237;-81
2022/11/04 07:21:46;;;;;;;4.57;1.30;;;8.60;99.90;;;;;;5056156;28;20175;-81
2022/11/04 07:24:12;;;;;;;5.53;1.33;;;8.70;99.90;;;;;;5054625;28;20258;-81
2022/11/04 07:26:38;;;;;;;3.47;1.40;;;8.70;99.90;;;;;;5056231;28;20206;-81
2022/11/04 07:29:05;;;;;;;3.00;1.20;;;8.70;99.90;;;;;;5055311;28;20211;-80
2022/11/04 07:31:31;;;;;;;7.70;1.50;;;8.70;99.90;;;;;;5053886;28;20220;-80
2022/11/04 07:33:56;;;;;;;3.57;1.40;;;8.80;99.90;;;;;;5055774;28;20179;-80
2022/11/04 07:36:22;;;;;;;6.70;1.40;;;8.80;99.90;;;;;;5055276;28;20178;-81
2022/11/04 07:38:47;;;;;;;4.00;1.60;;;8.80;99.90;;;;;;5054090;28;20199;-81
2022/11/04 07:41:14;;;;;;;4.10;1.97;;;8.90;99.90;;;;;;5055672;28;20306;-81
2022/11/04 07:43:39;;;;;;;2.90;1.70;;;8.90;99.90;;;;;;5054611;28;20184;-81
2022/11/04 07:46:08;;;;;;;4.63;1.60;;;8.90;99.90;;;;;;5054330;28;20183;-81
2022/11/04 07:48:35;;;;;;;6.03;1.33;;;8.90;99.90;;;;;;5055078;28;20716;-81
2022/11/04 07:51:02;;;;;;;5.50;1.50;;;9.00;99.90;;;;;;5054028;28;20182;-81
2022/11/04 07:53:29;;;;;;;6.30;1.83;;;9.00;99.90;;;;;;5054524;28;20179;-80
2022/11/04 07:55:54;;;;;;;8.07;1.70;;;9.00;99.90;;;;;;5053633;28;20183;-80
2022/11/04 07:58:21;;;;;;;9.60;1.67;;;9.10;99.90;;;;;;5055082;28;20199;-81
2022/11/04 08:00:47;;;;;;;3.43;1.80;;;9.10;99.90;;;;;;5055099;28;20214;-81
2022/11/04 08:03:13;;;;;;;2.93;1.43;;;9.10;99.90;;;;;;5054649;28;20187;-80
2022/11/04 08:05:38;;;;;;;7.23;1.90;;;9.20;99.90;;;;;;5055098;28;20183;-81
2022/11/04 08:08:04;;;;;;;6.03;1.90;;;9.20;99.90;;;;;;5053220;28;20219;-80
2022/11/04 08:10:30;;;;;;;2.43;1.50;;;9.30;99.90;;;;;;5055039;28;20172;-81
2022/11/04 08:12:56;;;;;;;8.53;2.00;;;9.30;99.90;;;;;;5053769;28;20546;-81
2022/11/04 08:15:21;;;;;;;7.10;1.50;;;9.40;99.90;;;;;;5054774;28;20175;-81
2022/11/04 08:17:47;;;;;;;6.30;2.30;;;9.40;99.90;;;;;;5053638;28;20191;-80
2022/11/04 08:20:13;;;;;;;7.37;2.07;;;9.40;99.90;;;;;;5055661;28;20179;-80
2022/11/04 08:22:38;;;;;;;4.30;1.33;;;9.40;99.90;;;;;;5056345;28;20221;-80
2022/11/04 08:25:04;;;;;;;2.97;1.43;;;9.50;99.90;;;;;;5055790;28;20203;-79
2022/11/04 08:27:31;;;;;;;5.17;1.60;;;9.50;99.90;;;;;;5056115;28;20225;-80
2022/11/04 08:29:56;;;;;;;5.00;1.97;;;9.60;99.90;;;;;;5056296;28;20190;-80
2022/11/04 08:32:22;;;;;;;5.73;1.57;;;9.60;99.90;;;;;;5055007;28;20638;-79
2022/11/04 08:34:48;;;;;;;7.23;1.37;;;9.70;99.90;;;;;;5055090;28;20176;-80
2022/11/04 08:37:15;;;;;;;6.37;1.87;;;9.80;99.90;;;;;;5056015;28;20217;-80
2022/11/04 08:39:41;;;;;;;4.63;1.70;;;9.90;99.90;;;;;;5053916;28;20669;-81
2022/11/04 08:42:07;;;;;;;10.23;1.87;;;9.90;99.90;;;;;;5053701;28;20240;-79
2022/11/04 08:44:32;;;;;;;4.50;1.63;;;10.00;99.90;;;;;;5055064;28;20559;-80
2022/11/04 08:46:59;;;;;;;6.57;1.73;;;10.00;99.90;;;;;;5055784;28;20655;-80
2022/11/04 08:49:25;;;;;;;5.90;2.00;;;10.10;99.90;;;;;;5053865;28;20193;-80
2022/11/04 08:51:56;;;;;;;7.83;2.30;;;10.10;99.90;;;;;;5055390;28;20564;-80
2022/11/04 08:54:23;;;;;;;6.23;1.67;;;10.10;99.90;;;;;;5056354;28;20186;-80
2022/11/04 08:56:48;;;;;;;6.70;2.17;;;10.10;99.90;;;;;;5056226;28;20172;-81
2022/11/04 08:59:14;;;;;;;8.23;1.97;;;10.10;99.90;;;;;;5054747;28;20677;-80
2022/11/04 09:01:41;;;;;;;10.57;2.10;;;10.10;99.90;;;;;;5054370;28;20176;-80
2022/11/04 09:04:09;;;;;;;10.03;2.17;;;10.10;99.90;;;;;;5056548;28;20179;-81
2022/11/04 09:06:37;;;;;;;5.57;1.60;;;10.10;99.90;;;;;;5060441;28;20263;-80
2022/11/04 09:09:05;;;;;;;4.83;2.20;;;10.00;99.90;;;;;;5060519;28;20208;-80
2022/11/04 09:11:35;;;;;;;8.97;1.80;;;10.10;99.90;;;;;;5059412;28;20175;-80
2022/11/04 09:14:01;;;;;;;6.93;2.00;;;10.10;99.90;;;;;;5061299;28;20251;-81
2022/11/04 09:16:28;;;;;;;5.57;1.90;;;10.10;99.90;;;;;;5060421;28;20592;-80
2022/11/04 09:18:55;;;;;;;7.23;2.17;;;10.10;99.90;;;;;;5061611;28;20285;-80
2022/11/04 09:21:21;;;;;;;11.17;2.70;;;10.10;99.90;;;;;;5060696;28;20193;-80
2022/11/04 09:23:46;;;;;;;6.40;2.00;;;10.20;99.90;;;;;;5060924;28;20179;-80
2022/11/04 09:26:14;;;;;;;5.00;2.40;;;10.20;99.90;;;;;;5060971;28;20241;-80
2022/11/04 09:28:40;;;;;;;5.23;2.27;;;10.20;99.90;;;;;;5060920;28;20203;-81
2022/11/04 09:31:11;;;;;;;4.60;1.70;;;10.30;99.90;;;;;;5060657;28;20645;-81
2022/11/04 09:33:37;;;;;;;6.03;1.53;;;10.40;99.90;;;;;;5060472;28;20168;-80
2022/11/04 09:36:03;;;;;;;5.80;2.20;;;10.50;99.90;;;;;;5058498;28;20241;-81
2022/11/04 09:38:29;;;;;;;7.87;2.20;;;10.50;99.90;;;;;;5060179;28;20201;-80
2022/11/04 09:40:55;;;;;;;8.70;2.60;;;10.60;99.90;;;;;;5059367;28;20199;-80
2022/11/04 09:43:53;;;;;;;5.50;1.77;;;10.60;99.90;;;;;;5057753;28;20555;-80
2022/11/04 09:46:20;;;;;;;4.93;1.37;;;10.60;99.90;;;;;;5058618;28;20171;-79
2022/11/04 09:48:52;;;;;;;5.03;2.10;;;10.60;99.90;;;;;;5058857;28;20207;-79
2022/11/04 09:51:21;;;;;;;7.30;2.03;;;10.70;99.90;;;;;;5059229;28;20172;-79
2022/11/04 09:53:59;;;;;;;9.13;1.70;;;10.70;99.90;;;;;;5058576;28;20665;-80
2022/11/04 09:56:31;;;;;;;5.57;1.57;;;10.70;99.90;;;;;;5059031;28;20209;-79
2022/11/04 09:58:57;;;;;;;6.43;2.20;;;10.70;99.90;;;;;;5057671;28;20214;-80
2022/11/04 10:01:45;;;;;;;6.40;1.83;;;10.70;99.90;;;;;;5058926;28;20584;-80
2022/11/04 10:04:21;;;;;;;4.63;1.50;;;10.80;99.90;;;;;;5058421;28;20175;-80
2022/11/04 10:07:12;;;;;;;6.10;1.63;;;10.70;99.90;;;;;;5059472;28;20167;-80
2022/11/04 10:09:59;;;;;;;6.40;1.97;;;10.80;99.90;;;;;;5066773;28;20210;-79
2022/11/04 10:13:01;;;;;;;5.40;1.50;;;10.80;99.90;;;;;;5072443;28;20171;-79
2022/11/04 10:15:42;;;;;;;5.50;1.70;;;10.90;99.90;;;;;;5064130;28;20161;-80
2022/11/04 10:18:23;;;;;;;3.33;1.37;;;11.00;99.90;;;;;;5056923;28;20187;-80
2022/11/04 10:21:07;;;;;;;4.27;1.53;;;11.00;99.90;;;;;;5057288;28;20167;-79
2022/11/04 10:23:37;;;;;;;6.93;1.80;;;11.10;99.90;;;;;;5057363;28;20156;-80
2022/11/04 10:26:22;;;;;;;5.63;1.87;;;11.10;99.90;;;;;;5055622;28;20576;-80
2022/11/04 10:28:56;;;;;;;5.50;1.80;;;11.20;99.90;;;;;;5055618;28;20215;-79
2022/11/04 10:31:23;;;;;;;9.43;2.03;;;11.30;99.90;;;;;;5058043;28;20168;-78
2022/11/04 10:33:58;;;;;;;6.07;1.43;;;11.30;99.90;;;;;;5059794;28;20180;-79
2022/11/04 10:36:24;;;;;;;4.73;1.67;;;11.40;99.90;;;;;;5057230;28;20178;-80
2022/11/04 10:38:56;;;;;;;6.40;1.70;;;11.40;99.90;;;;;;5057984;28;20206;-79
2022/11/04 10:41:36;;;;;;;5.10;1.47;;;11.50;99.90;;;;;;5057093;28;20164;-79
2022/11/04 10:44:03;;;;;;;5.63;1.50;;;11.50;99.90;;;;;;5056288;28;20237;-79
2022/11/04 10:46:44;;;;;;;7.90;1.53;;;11.60;99.90;;;;;;5056829;28;20175;-80
2022/11/04 10:49:48;;;;;;;7.60;1.90;;;11.60;99.90;;;;;;5056745;28;20210;-79
2022/11/04 10:52:14;;;;;;;6.33;1.60;;;11.70;99.90;;;;;;5057023;28;20163;-79
2022/11/04 10:54:46;;;;;;;11.87;1.87;;;11.80;99.90;;;;;;5055073;28;20180;-79
2022/11/04 10:57:15;;;;;;;7.33;1.80;;;11.80;99.90;;;;;;5056729;28;20187;-79
2022/11/04 10:59:54;;;;;;;9.30;1.87;;;12.00;99.90;;;;;;5054710;28;20195;-79
2022/11/04 11:02:42;;;;;;;5.30;1.53;;;12.10;99.90;;;;;;5056280;28;20633;-80
2022/11/04 11:05:28;;;;;;;4.33;1.47;;;12.20;99.90;;;;;;5056018;28;20191;-80
2022/11/04 11:07:57;;;;;;;3.90;1.50;;;12.30;99.90;;;;;;5056016;28;20578;-79
2022/11/04 11:10:22;;;;;;;8.00;1.87;;;12.30;99.90;;;;;;5054587;28;20182;-80
2022/11/04 11:13:00;;;;;;;4.13;1.50;;;12.30;99.90;;;;;;5054630;28;20179;-80
2022/11/04 11:15:36;;;;;;;3.50;1.83;;;12.40;99.90;;;;;;5056683;28;20162;-80
2022/11/04 11:18:05;;;;;;;5.10;1.70;;;12.40;99.90;;;;;;5055763;28;20202;-79
2022/11/04 11:20:32;;;;;;;7.23;2.10;;;12.40;99.90;;;;;;5056528;28;20176;-79
2022/11/04 11:23:00;;;;;;;8.90;2.00;;;12.40;99.90;;;;;;5054615;28;20262;-80
2022/11/04 11:25:41;;;;;;;4.30;2.10;;;12.50;99.90;;;;;;5056276;28;20179;-80
2022/11/04 11:28:20;;;;;;;3.40;1.30;;;12.50;99.90;;;;;;5058542;28;20257;-79
2022/11/04 11:30:46;;;;;;;6.13;2.00;;;12.50;99.90;;;;;;5054120;28;20266;-80
2022/11/04 11:33:17;;;;;;;6.37;2.10;;;12.60;99.90;;;;;;5054251;28;20203;-80
2022/11/04 11:35:52;;;;;;;5.37;1.93;;;12.60;99.90;;;;;;5055479;28;20171;-79
2022/11/04 11:38:22;;;;;;;5.17;1.67;;;12.60;99.90;;;;;;5053880;28;20203;-81
2022/11/04 11:40:51;;;;;;;5.80;1.90;;;12.70;99.90;;;;;;5054449;28;20203;-80
2022/11/04 11:43:25;;;;;;;6.40;1.77;;;12.50;99.90;;;;;;5064006;28;20214;-80
2022/11/04 11:45:51;;;;;;;9.00;2.30;;;12.50;99.90;;;;;;5064011;28;20260;-80
2022/11/04 11:48:39;;;;;;;4.63;1.90;;;12.60;99.90;;;;;;5063248;28;20603;-80
2022/11/04 11:51:06;;;;;;;8.30;1.83;;;12.50;99.90;;;;;;5057590;28;20270;-80
2022/11/04 11:53:35;;;;;;;6.00;2.57;;;12.50;99.90;;;;;;5056922;28;20526;-80
2022/11/04 11:56:23;;;;;;;5.87;1.93;;;12.50;99.90;;;;;;5056398;28;20171;-80
2022/11/04 11:58:58;;;;;;;8.93;1.70;;;12.60;99.90;;;;;;5054977;28;20234;-80
2022/11/04 12:01:41;;;;;;;6.93;1.60;;;12.50;99.90;;;;;;5056357;28;20553;-80
2022/11/04 12:04:07;;;;;;;9.10;1.80;;;12.40;99.90;;;;;;5056368;28;20225;-80
2022/11/04 12:06:41;;;;;;;6.27;1.50;;;12.50;99.90;;;;;;5056416;28;20178;-81
2022/11/04 12:09:07;;;;;;;5.53;1.87;;;12.50;99.90;;;;;;5056114;28;20286;-80
2022/11/04 12:11:48;;;;;;;3.90;1.70;;;12.40;99.90;;;;;;5054953;28;20207;-81
2022/11/04 12:14:35;;;;;;;5.27;1.90;;;12.40;99.90;;;;;;5056093;28;20622;-80
2022/11/04 12:17:32;;;;;;;5.40;1.97;;;12.40;99.90;;;;;;5054678;28;20210;-80
2022/11/04 12:20:36;;;;;;;4.73;1.97;;;12.50;99.90;;;;;;5055935;28;20160;-80
2022/11/04 12:23:23;;;;;;;7.83;2.10;;;12.50;99.90;;;;;;5056001;28;20159;-80
2022/11/04 12:26:09;;;;;;;4.67;2.23;;;12.50;99.90;;;;;;5055929;28;20160;-80
2022/11/04 12:28:42;;;;;;;8.30;2.70;;;12.60;99.90;;;;;;5055975;28;20726;-81
2022/11/04 12:31:31;;;;;;;8.80;2.40;;;12.60;99.90;;;;;;5057517;28;20175;-80
2022/11/04 12:34:23;;;;;;;7.97;3.10;;;12.70;99.90;;;;;;5054314;28;20521;-80
2022/11/04 12:37:15;;;;;;;8.47;2.67;;;12.80;99.90;;;;;;5053900;28;20172;-80
2022/11/04 12:39:52;;;;;;;11.87;2.90;;;12.80;99.90;;;;;;5056763;28;20248;-80
2022/11/04 12:42:26;;;;;;;10.60;2.60;;;12.80;99.90;;;;;;5059292;28;20172;-80
2022/11/04 12:44:57;;;;;;;6.97;2.20;;;12.90;99.90;;;;;;5059081;28;20198;-81
2022/11/04 12:47:41;;;;;;;7.93;2.60;;;12.90;99.90;;;;;;5059638;28;20321;-79
2022/11/04 12:50:32;;;;;;;4.07;1.80;;;13.00;99.90;;;;;;5058893;28;20160;-80
2022/11/04 12:53:18;;;;;;;6.43;2.80;;;13.10;99.90;;;;;;5059810;28;20171;-80
2022/11/04 12:55:59;;;;;;;7.67;1.97;;;13.10;99.90;;;;;;5059754;28;20164;-80
2022/11/04 12:58:54;;;;;;;6.23;2.20;;;13.20;99.90;;;;;;5059784;28;20202;-79
2022/11/04 13:01:30;;;;;;;7.83;2.40;;;13.30;99.90;;;;;;5059481;28;20191;-79
2022/11/04 13:04:11;;;;;;;7.37;2.20;;;13.40;99.90;;;;;;5058572;28;20683;-79
2022/11/04 13:06:57;;;;;;;7.87;1.67;;;13.50;99.90;;;;;;5059473;28;20163;-80
2022/11/04 13:09:37;;;;;;;10.13;2.40;;;13.40;99.90;;;;;;5059021;28;20218;-80
2022/11/04 13:12:17;;;;;;;9.07;2.50;;;13.30;99.90;;;;;;5058624;28;20175;-79
2022/11/04 13:14:51;;;;;;;7.80;2.77;;;13.30;99.90;;;;;;5059702;28;20226;-82
2022/11/04 13:17:32;;;;;;;9.53;2.20;;;13.30;1.00;;;;;;5058949;28;20175;-81
2022/11/04 13:20:05;;;;;;;6.03;2.00;;;13.30;1.00;;;;;;5065801;28;20231;-81
2022/11/04 13:22:35;;;;;;;5.40;2.97;;;13.30;1.00;;;;;;5067391;28;20251;-82
2022/11/04 13:25:17;;;;;;;10.07;2.77;;;13.20;99.90;;;;;;5065529;28;20305;-78
2022/11/04 13:27:45;;;;;;;8.13;3.33;;;13.10;99.90;;;;;;5068199;28;20199;-78
2022/11/04 13:30:20;;;;;;;9.80;2.80;;;13.00;99.90;;;;;;5065954;28;20176;-79
2022/11/04 13:32:52;;;;;;;7.77;2.87;;;13.00;99.90;;;;;;5057331;28;20148;-81
2022/11/04 13:35:41;;;;;;;7.97;2.20;;;12.90;99.90;;;;;;5056368;28;20164;-81
2022/11/04 13:38:11;;;;;;;6.17;2.67;;;13.00;1.00;;;;;;5056113;28;20199;-81
2022/11/04 13:41:05;;;;;;;10.23;3.90;;;13.00;1.00;;;;;;5057190;28;20152;-80
2022/11/04 13:43:45;;;;;;;7.83;2.77;;;12.90;1.00;;;;;;5055861;28;20222;-81
2022/11/04 13:46:22;;;;;;;7.57;3.03;;;12.90;1.00;;;;;;5057201;28;20187;-80